Time;durP1;ratioP1;P1;durP2;ratioP2;P2;SDS_P1;SDS_P2;PMS_P1;PMS_P2;Temp;Humidity;BMP_temperature;BMP_pressure;BME280_temperature;BME280_humidity;BME280_pressure;Samples;Min_cycle;Max_cycle;Signal;HPM_P1;HPM_P2
2023/07/18 00:02:11;;;;;;;2.40;2.20;;;20.80;82.90;;;;;;4992338;28;20465;-78
2023/07/18 00:04:40;;;;;;;5.47;3.83;;;20.80;83.30;;;;;;4992756;28;20950;-80
2023/07/18 00:07:07;;;;;;;7.43;4.20;;;20.80;83.20;;;;;;4989868;28;20477;-80
2023/07/18 00:09:35;;;;;;;3.63;3.20;;;20.70;83.70;;;;;;4991824;28;20561;-76
2023/07/18 00:12:02;;;;;;;4.80;3.30;;;20.60;83.90;;;;;;4992640;28;20466;-79
2023/07/18 00:14:31;;;;;;;4.10;3.23;;;20.60;84.30;;;;;;4992640;28;20557;-76
2023/07/18 00:16:58;;;;;;;6.60;6.00;;;20.60;84.80;;;;;;4992073;28;20478;-79
2023/07/18 00:19:27;;;;;;;3.73;2.70;;;20.50;85.10;;;;;;4992066;28;20470;-76
2023/07/18 00:21:54;;;;;;;3.50;3.20;;;20.50;85.40;;;;;;4991658;28;20481;-79
2023/07/18 00:24:22;;;;;;;6.57;5.20;;;20.50;85.50;;;;;;4991425;28;20982;-79
2023/07/18 00:26:49;;;;;;;4.70;4.30;;;20.50;85.80;;;;;;4992045;28;20537;-78
2023/07/18 00:29:16;;;;;;;4.77;3.50;;;20.50;85.90;;;;;;4990507;28;20999;-79
2023/07/18 00:31:43;;;;;;;4.93;4.33;;;20.50;86.70;;;;;;4992216;28;20474;-79
2023/07/18 00:34:11;;;;;;;4.00;3.27;;;20.50;86.70;;;;;;4989498;28;20934;-74
2023/07/18 00:36:38;;;;;;;3.27;2.97;;;20.50;87.00;;;;;;4991094;28;20545;-76
2023/07/18 00:39:05;;;;;;;2.83;2.63;;;20.40;87.10;;;;;;4990987;28;20549;-76
2023/07/18 00:41:34;;;;;;;3.17;2.47;;;20.40;87.80;;;;;;4991726;28;20470;-76
2023/07/18 00:44:01;;;;;;;6.30;3.07;;;20.30;88.40;;;;;;4990832;28;20481;-80
2023/07/18 00:46:28;;;;;;;3.87;2.83;;;20.30;88.90;;;;;;4991040;28;20473;-80
2023/07/18 00:48:58;;;;;;;4.83;2.80;;;20.30;89.10;;;;;;4990526;28;20988;-79
2023/07/18 00:51:25;;;;;;;3.10;2.53;;;20.30;89.60;;;;;;4992899;28;21185;-80
2023/07/18 00:53:53;;;;;;;4.93;3.10;;;20.30;89.80;;;;;;4991273;28;20501;-76
2023/07/18 00:56:20;;;;;;;4.67;3.37;;;20.30;90.00;;;;;;4991139;28;21108;-76
2023/07/18 00:58:50;;;;;;;3.93;3.17;;;20.20;90.40;;;;;;4991954;28;20505;-80
2023/07/18 01:01:17;;;;;;;4.00;3.23;;;20.10;90.60;;;;;;4989954;28;20504;-79
2023/07/18 01:03:44;;;;;;;3.40;3.10;;;20.10;90.90;;;;;;4992694;28;20477;-79
2023/07/18 01:06:11;;;;;;;3.57;3.00;;;20.00;91.00;;;;;;4990505;28;20469;-78
2023/07/18 01:08:39;;;;;;;5.80;3.30;;;20.00;91.10;;;;;;4991693;28;20470;-74
2023/07/18 01:11:10;;;;;;;3.90;3.33;;;19.90;91.40;;;;;;4989723;28;20477;-79
2023/07/18 01:13:36;;;;;;;2.87;2.50;;;19.90;91.40;;;;;;4991963;28;20573;-79
2023/07/18 01:16:07;;;;;;;3.43;2.90;;;19.90;91.60;;;;;;4990936;28;20561;-78
2023/07/18 01:18:34;;;;;;;3.87;2.87;;;19.90;91.80;;;;;;4991666;28;20470;-79
2023/07/18 01:21:03;;;;;;;5.13;3.20;;;19.90;91.80;;;;;;4990237;28;20469;-76
2023/07/18 01:23:31;;;;;;;7.07;2.70;;;19.80;91.80;;;;;;4990504;28;20466;-78
2023/07/18 01:25:58;;;;;;;3.60;3.30;;;19.80;92.00;;;;;;4984980;28;20966;-76
2023/07/18 01:28:25;;;;;;;4.60;3.63;;;19.80;92.10;;;;;;4991926;28;20955;-76
2023/07/18 01:30:54;;;;;;;4.03;2.50;;;19.80;92.40;;;;;;4992165;28;20536;-80
2023/07/18 01:33:21;;;;;;;3.20;2.90;;;19.70;92.50;;;;;;4973187;28;20461;-75
2023/07/18 01:35:49;;;;;;;3.10;2.80;;;19.70;92.70;;;;;;4990705;28;20548;-76
2023/07/18 01:38:16;;;;;;;2.87;2.63;;;19.70;92.90;;;;;;4990828;28;20531;-80
2023/07/18 01:40:44;;;;;;;4.63;3.60;;;19.70;93.10;;;;;;4991975;28;20811;-75
2023/07/18 01:43:11;;;;;;;5.30;2.80;;;19.60;93.10;;;;;;4990652;28;20474;-75
2023/07/18 01:45:39;;;;;;;3.23;2.77;;;19.60;93.20;;;;;;4992170;28;20528;-78
2023/07/18 01:48:06;;;;;;;4.10;3.00;;;19.60;93.50;;;;;;4994408;28;20493;-75
2023/07/18 01:50:33;;;;;;;4.00;3.10;;;19.60;93.60;;;;;;4995765;28;20944;-75
2023/07/18 01:53:01;;;;;;;5.53;3.13;;;19.60;93.70;;;;;;4995513;28;20505;-76
2023/07/18 01:55:28;;;;;;;4.13;2.80;;;19.50;93.70;;;;;;4994991;28;20476;-76
2023/07/18 01:57:57;;;;;;;2.80;2.60;;;19.50;94.00;;;;;;4995386;28;20470;-75
2023/07/18 02:00:24;;;;;;;4.80;2.70;;;19.50;94.10;;;;;;4995699;28;20816;-79
2023/07/18 02:02:52;;;;;;;3.77;3.33;;;19.50;94.30;;;;;;4995815;28;20465;-76
2023/07/18 02:05:21;;;;;;;3.83;3.50;;;19.40;94.40;;;;;;4993956;28;20466;-80
2023/07/18 02:07:48;;;;;;;2.93;2.63;;;19.40;94.40;;;;;;4993540;28;20478;-81
2023/07/18 02:10:16;;;;;;;4.13;3.07;;;19.40;94.70;;;;;;4995090;28;20480;-80
2023/07/18 02:12:43;;;;;;;6.13;2.87;;;19.40;94.70;;;;;;4995039;28;20544;-80
2023/07/18 02:15:14;;;;;;;2.77;2.53;;;19.30;95.00;;;;;;4993653;28;20557;-77
2023/07/18 02:17:42;;;;;;;3.13;2.83;;;19.30;95.10;;;;;;4995276;28;20469;-80
2023/07/18 02:20:11;;;;;;;3.33;3.03;;;19.30;95.70;;;;;;4994604;28;20493;-76
2023/07/18 02:22:39;;;;;;;2.60;2.40;;;19.20;95.50;;;;;;4994933;28;20795;-78
2023/07/18 02:25:09;;;;;;;4.70;2.90;;;19.30;95.60;;;;;;4996681;28;20476;-79
2023/07/18 02:27:42;;;;;;;3.80;3.20;;;19.20;95.60;;;;;;4997088;28;20513;-79
2023/07/18 02:30:12;;;;;;;3.27;2.90;;;19.30;95.80;;;;;;4997640;28;20465;-79
2023/07/18 02:32:40;;;;;;;3.33;3.03;;;19.20;95.90;;;;;;4997920;28;20761;-79
2023/07/18 02:35:17;;;;;;;2.77;2.47;;;19.20;96.00;;;;;;4996976;28;20478;-74
2023/07/18 02:37:45;;;;;;;5.70;3.53;;;19.20;96.10;;;;;;4997060;28;20916;-80
2023/07/18 02:40:13;;;;;;;4.00;3.17;;;19.30;96.30;;;;;;5000145;28;20470;-78
2023/07/18 02:42:42;;;;;;;4.17;3.23;;;19.30;96.40;;;;;;4996309;28;20458;-75
2023/07/18 02:45:09;;;;;;;3.73;3.43;;;19.20;96.70;;;;;;4996703;28;20502;-79
2023/07/18 02:47:38;;;;;;;3.47;3.17;;;19.10;96.90;;;;;;4995344;28;20470;-74
2023/07/18 02:50:07;;;;;;;3.47;3.03;;;19.10;97.10;;;;;;4998212;28;20492;-79
2023/07/18 02:52:34;;;;;;;3.60;3.30;;;19.10;97.20;;;;;;4997212;28;20477;-75
2023/07/18 02:55:03;;;;;;;4.50;3.47;;;19.10;97.60;;;;;;4996800;28;20932;-79
2023/07/18 02:57:30;;;;;;;4.27;3.17;;;19.00;97.70;;;;;;4995594;28;20952;-79
2023/07/18 03:00:25;;;;;;;4.40;3.30;;;19.00;98.10;;;;;;4997288;28;20569;-78
2023/07/18 03:02:56;;;;;;;3.90;2.97;;;18.90;98.20;;;;;;4992317;28;20524;-80
2023/07/18 03:05:24;;;;;;;4.40;3.60;;;18.90;98.50;;;;;;4996803;28;20545;-80
2023/07/18 03:07:54;;;;;;;3.97;3.50;;;18.90;98.70;;;;;;4995606;28;20502;-79
2023/07/18 03:10:21;;;;;;;3.70;3.30;;;18.90;98.80;;;;;;4996315;28;20470;-79
2023/07/18 03:12:49;;;;;;;3.60;3.30;;;18.90;99.20;;;;;;4997574;28;20537;-79
2023/07/18 03:15:16;;;;;;;3.73;3.40;;;18.80;99.20;;;;;;4998245;28;20481;-76
2023/07/18 03:17:43;;;;;;;3.63;3.37;;;18.90;99.40;;;;;;4996118;28;20466;-75
2023/07/18 03:20:16;;;;;;;3.90;2.90;;;18.80;99.80;;;;;;4996490;28;20551;-76
2023/07/18 03:22:44;;;;;;;4.10;3.70;;;18.80;99.90;;;;;;4995712;28;20529;-76
2023/07/18 03:25:13;;;;;;;4.87;4.07;;;18.70;99.90;;;;;;4996451;28;20477;-79
2023/07/18 03:27:40;;;;;;;4.10;3.70;;;18.80;99.90;;;;;;4996938;28;20465;-80
2023/07/18 03:30:10;;;;;;;5.73;4.70;;;18.70;99.90;;;;;;4996607;28;20533;-75
2023/07/18 03:32:37;;;;;;;6.40;3.30;;;18.70;99.90;;;;;;4995500;28;20474;-75
2023/07/18 03:35:06;;;;;;;5.63;3.70;;;18.70;99.90;;;;;;4996371;28;20559;-79
2023/07/18 03:37:40;;;;;;;5.90;3.67;;;18.60;99.90;;;;;;5000643;28;20481;-76
2023/07/18 03:40:10;;;;;;;6.13;3.77;;;18.60;99.90;;;;;;4995678;28;20458;-78
2023/07/18 03:42:37;;;;;;;4.57;3.97;;;18.60;99.90;;;;;;4996023;28;20476;-79
2023/07/18 03:45:04;;;;;;;5.67;3.60;;;18.60;99.90;;;;;;4994655;28;20470;-75
2023/07/18 03:47:32;;;;;;;7.70;3.83;;;18.60;99.90;;;;;;4995877;28;20560;-78
2023/07/18 03:49:59;;;;;;;4.57;3.70;;;18.50;99.90;;;;;;4995120;28;20545;-79
2023/07/18 03:52:26;;;;;;;3.80;3.17;;;18.50;99.90;;;;;;4995815;28;20561;-79
2023/07/18 03:54:54;;;;;;;5.13;3.77;;;18.50;99.90;;;;;;4994260;28;20501;-79
2023/07/18 03:57:22;;;;;;;4.30;3.90;;;18.60;99.90;;;;;;4995876;28;20561;-79
2023/07/18 03:59:49;;;;;;;6.03;4.20;;;18.50;99.90;;;;;;4994301;28;20480;-79
2023/07/18 04:02:16;;;;;;;4.43;4.00;;;18.50;99.90;;;;;;4995231;28;20474;-79
2023/07/18 04:04:43;;;;;;;4.90;3.97;;;18.50;99.90;;;;;;4995857;28;20553;-78
2023/07/18 04:07:10;;;;;;;7.83;3.90;;;18.50;99.90;;;;;;4995014;28;20754;-78
2023/07/18 04:09:39;;;;;;;5.27;4.17;;;18.50;99.90;;;;;;4995288;28;20497;-79
2023/07/18 04:12:13;;;;;;;8.70;5.47;;;18.50;99.90;;;;;;4994942;28;20470;-79
2023/07/18 04:14:42;;;;;;;9.13;5.00;;;18.50;99.90;;;;;;4995143;28;20474;-79
2023/07/18 04:17:09;;;;;;;5.00;4.13;;;18.60;99.90;;;;;;4994787;28;20466;-79
2023/07/18 04:19:36;;;;;;;5.73;3.97;;;18.60;99.90;;;;;;4995203;28;20466;-77
2023/07/18 04:22:04;;;;;;;6.80;5.83;;;18.60;99.90;;;;;;4994783;28;20553;-79
2023/07/18 04:24:34;;;;;;;5.70;4.83;;;18.60;99.90;;;;;;4994819;28;20478;-75
2023/07/18 04:27:00;;;;;;;5.90;4.90;;;18.60;99.90;;;;;;4994399;28;20812;-75
2023/07/18 04:29:29;;;;;;;8.37;4.73;;;18.60;99.90;;;;;;4995236;28;20553;-79
2023/07/18 04:31:56;;;;;;;5.47;4.47;;;18.50;99.90;;;;;;4994795;28;20504;-75
2023/07/18 04:34:24;;;;;;;4.97;4.50;;;18.60;99.90;;;;;;4994633;28;20553;-74
2023/07/18 04:36:51;;;;;;;6.03;4.83;;;18.60;99.90;;;;;;4994530;28;20541;-76
2023/07/18 04:39:18;;;;;;;6.30;4.17;;;18.70;99.90;;;;;;4995007;28;20547;-80
2023/07/18 04:41:44;;;;;;;7.53;4.70;;;18.60;99.90;;;;;;4994924;28;20470;-75
2023/07/18 04:44:11;;;;;;;3.90;3.60;;;18.70;99.90;;;;;;4994201;28;20967;-80
2023/07/18 04:46:41;;;;;;;4.57;4.00;;;18.70;99.90;;;;;;4986312;28;20488;-79
2023/07/18 04:49:08;;;;;;;5.70;4.30;;;18.70;99.90;;;;;;4994127;28;20472;-75
2023/07/18 04:51:35;;;;;;;7.43;4.33;;;18.80;99.90;;;;;;4994716;28;20481;-75
2023/07/18 04:54:02;;;;;;;3.50;3.20;;;18.80;99.90;;;;;;4994029;28;20560;-75
2023/07/18 04:56:29;;;;;;;5.50;4.00;;;18.90;99.90;;;;;;4994043;28;21002;-78
2023/07/18 04:58:56;;;;;;;7.10;4.30;;;18.90;99.90;;;;;;4994322;28;20552;-79
2023/07/18 05:01:24;;;;;;;5.00;3.83;;;18.90;99.90;;;;;;4994682;28;21026;-78
2023/07/18 05:03:52;;;;;;;6.00;4.47;;;18.90;99.90;;;;;;4994777;28;20474;-76
2023/07/18 05:06:19;;;;;;;10.07;4.73;;;19.00;99.90;;;;;;4994170;28;20462;-75
2023/07/18 05:08:46;;;;;;;5.47;4.80;;;19.00;99.90;;;;;;4994328;28;20476;-79
2023/07/18 05:11:13;;;;;;;4.00;3.47;;;19.10;99.90;;;;;;4993647;28;20477;-79
2023/07/18 05:13:42;;;;;;;7.30;3.83;;;19.10;99.90;;;;;;4994626;28;20548;-79
2023/07/18 05:16:09;;;;;;;4.90;3.57;;;19.10;99.90;;;;;;4993892;28;20875;-75
2023/07/18 05:18:39;;;;;;;3.80;3.43;;;19.10;99.90;;;;;;4994602;28;20565;-76
2023/07/18 05:21:07;;;;;;;3.53;3.23;;;19.20;99.90;;;;;;4993402;28;20509;-74
2023/07/18 05:23:36;;;;;;;4.43;3.50;;;19.30;99.90;;;;;;4993737;28;20470;-76
2023/07/18 05:26:03;;;;;;;5.77;4.13;;;19.30;99.90;;;;;;4993379;28;20473;-75
2023/07/18 05:28:30;;;;;;;7.97;3.90;;;19.40;99.90;;;;;;4994020;28;20472;-75
2023/07/18 05:31:00;;;;;;;4.57;3.97;;;19.40;99.90;;;;;;4993680;28;20964;-76
2023/07/18 05:33:26;;;;;;;4.13;3.30;;;19.40;99.90;;;;;;4994156;28;20457;-79
2023/07/18 05:35:54;;;;;;;6.10;3.50;;;19.50;99.90;;;;;;4994513;28;20525;-79
2023/07/18 05:38:22;;;;;;;7.33;3.67;;;19.50;99.90;;;;;;4992779;28;20524;-76
2023/07/18 05:40:49;;;;;;;7.23;4.20;;;19.60;99.90;;;;;;4994251;28;20470;-80
2023/07/18 05:43:17;;;;;;;6.57;4.13;;;19.50;99.90;;;;;;4993652;28;20502;-76
2023/07/18 05:45:45;;;;;;;6.37;4.03;;;19.60;99.90;;;;;;4994447;28;20474;-80
2023/07/18 05:48:12;;;;;;;4.77;3.90;;;19.60;99.90;;;;;;4993165;28;20517;-75
2023/07/18 05:50:43;;;;;;;7.23;4.60;;;19.70;99.90;;;;;;4993930;28;20481;-76
2023/07/18 05:53:10;;;;;;;5.27;4.23;;;19.70;99.90;;;;;;4993584;28;20472;-76
2023/07/18 05:55:38;;;;;;;4.90;4.20;;;19.90;99.90;;;;;;4993952;28;20968;-76
2023/07/18 05:58:06;;;;;;;8.30;4.90;;;19.80;99.90;;;;;;4993514;28;20466;-80
2023/07/18 06:00:33;;;;;;;7.00;4.30;;;19.90;99.90;;;;;;4993889;28;20811;-80
2023/07/18 06:03:10;;;;;;;5.60;4.30;;;19.90;99.90;;;;;;4990732;28;20509;-76
2023/07/18 06:05:36;;;;;;;4.60;3.87;;;20.00;99.90;;;;;;4970911;28;20505;-80
2023/07/18 06:08:07;;;;;;;5.50;4.30;;;20.10;99.90;;;;;;4990142;28;20557;-76
2023/07/18 06:10:35;;;;;;;7.20;4.50;;;20.20;99.90;;;;;;4993319;28;20492;-76
2023/07/18 06:13:03;;;;;;;6.23;3.97;;;20.20;99.90;;;;;;4993812;28;20466;-75
2023/07/18 06:15:30;;;;;;;5.67;4.10;;;20.30;99.90;;;;;;4993096;28;20541;-76
2023/07/18 06:17:57;;;;;;;7.20;4.20;;;20.40;99.90;;;;;;4993992;28;21034;-76
2023/07/18 06:20:24;;;;;;;6.70;3.97;;;20.50;99.90;;;;;;4993230;28;20557;-80
2023/07/18 06:22:52;;;;;;;6.60;3.50;;;20.50;99.90;;;;;;4992327;28;20541;-80
2023/07/18 06:25:19;;;;;;;8.23;3.70;;;20.60;99.90;;;;;;4993249;28;20500;-76
2023/07/18 06:27:46;;;;;;;4.00;3.30;;;20.80;99.90;;;;;;4994024;28;20537;-76
2023/07/18 06:30:14;;;;;;;8.60;3.70;;;20.80;99.90;;;;;;4993089;28;20540;-79
2023/07/18 06:32:42;;;;;;;8.00;4.73;;;21.00;99.90;;;;;;4994979;28;20533;-80
2023/07/18 06:35:10;;;;;;;5.80;4.10;;;21.10;99.90;;;;;;4997271;28;20477;-76
2023/07/18 06:37:37;;;;;;;9.93;4.67;;;21.20;99.90;;;;;;4996428;28;20465;-80
2023/07/18 06:40:05;;;;;;;5.47;3.40;;;21.40;99.90;;;;;;4997344;28;20581;-80
2023/07/18 06:42:32;;;;;;;8.00;4.20;;;21.50;99.90;;;;;;4996825;28;20560;-76
2023/07/18 06:45:15;;;;;;;11.20;3.93;;;21.60;99.90;;;;;;5109804;27;20563;-78
2023/07/18 06:47:43;;;;;;;11.30;4.77;;;21.80;99.90;;;;;;5111778;27;20484;-79
2023/07/18 06:50:13;;;;;;;6.10;4.20;;;21.90;99.90;;;;;;5111352;27;20457;-77
2023/07/18 06:52:40;;;;;;;5.67;3.57;;;22.00;99.80;;;;;;5109323;27;20533;-78
2023/07/18 06:55:10;;;;;;;4.00;3.23;;;22.10;99.80;;;;;;5111615;27;20849;-79
2023/07/18 06:57:38;;;;;;;6.60;3.90;;;22.20;99.70;;;;;;5109933;27;20486;-80
2023/07/18 07:00:06;;;;;;;7.30;3.97;;;22.30;99.40;;;;;;5111195;27;20802;-80
2023/07/18 07:02:35;;;;;;;5.80;3.13;;;22.60;99.20;;;;;;5110919;27;20472;-81
2023/07/18 07:05:02;;;;;;;8.37;4.30;;;22.70;98.80;;;;;;5110955;27;20493;-80
2023/07/18 07:07:29;;;;;;;6.93;4.17;;;22.90;98.30;;;;;;5110503;27;20503;-76
2023/07/18 07:09:56;;;;;;;5.67;3.47;;;23.00;97.50;;;;;;5110999;27;20539;-76
2023/07/18 07:12:23;;;;;;;8.30;3.30;;;23.10;96.90;;;;;;5110430;27;20552;-76
2023/07/18 07:14:50;;;;;;;3.60;3.30;;;23.30;96.50;;;;;;5111240;27;20858;-76
2023/07/18 07:17:17;;;;;;;3.80;3.03;;;23.40;96.30;;;;;;5110612;27;20468;-76
2023/07/18 07:19:45;;;;;;;5.30;2.80;;;23.50;96.20;;;;;;5109663;27;20517;-78
2023/07/18 07:22:14;;;;;;;6.30;3.50;;;23.50;96.10;;;;;;5110851;27;20869;-76
2023/07/18 07:24:41;;;;;;;7.43;4.30;;;23.60;96.00;;;;;;5110024;27;20457;-76
2023/07/18 07:27:09;;;;;;;6.07;4.03;;;23.60;95.90;;;;;;5110737;27;20810;-80
2023/07/18 07:29:39;;;;;;;5.90;3.87;;;23.60;96.00;;;;;;5110497;27;20472;-80
2023/07/18 07:32:06;;;;;;;4.60;3.47;;;23.60;95.80;;;;;;5110491;27;20476;-76
2023/07/18 07:34:33;;;;;;;15.53;4.80;;;23.70;95.60;;;;;;5109434;27;20527;-79
2023/07/18 07:37:02;;;;;;;6.10;4.03;;;23.80;95.30;;;;;;5110560;27;20861;-80
2023/07/18 07:39:29;;;;;;;5.30;3.10;;;24.00;95.20;;;;;;5109942;28;20595;-80
2023/07/18 07:41:55;;;;;;;3.47;3.17;;;24.10;94.40;;;;;;5110294;27;20491;-76
2023/07/18 07:44:26;;;;;;;5.80;3.73;;;24.20;94.00;;;;;;5109570;27;20542;-76
2023/07/18 07:46:53;;;;;;;6.60;4.23;;;24.30;93.40;;;;;;5110120;27;20477;-76
2023/07/18 07:49:20;;;;;;;5.40;3.73;;;24.40;93.40;;;;;;5110302;27;20468;-76
2023/07/18 07:51:47;;;;;;;7.33;3.60;;;24.40;93.20;;;;;;5110209;27;21576;-76
2023/07/18 07:54:16;;;;;;;11.27;4.80;;;24.40;93.10;;;;;;5110179;27;20560;-75
2023/07/18 07:56:42;;;;;;;13.37;4.90;;;24.50;92.70;;;;;;5094300;28;20497;-76
2023/07/18 07:59:09;;;;;;;9.40;4.03;;;24.50;92.90;;;;;;5096443;28;20489;-76
2023/07/18 08:01:36;;;;;;;8.60;4.20;;;24.50;92.70;;;;;;5095636;28;20475;-75
2023/07/18 08:04:03;;;;;;;8.87;3.77;;;24.40;92.60;;;;;;5096534;28;20497;-76
2023/07/18 08:06:30;;;;;;;16.03;4.77;;;24.50;92.70;;;;;;5096014;28;20485;-77
2023/07/18 08:08:57;;;;;;;8.60;4.40;;;24.50;92.60;;;;;;5096188;28;20462;-76
2023/07/18 08:11:25;;;;;;;10.37;4.50;;;24.50;92.50;;;;;;5096157;28;20500;-76
2023/07/18 08:13:53;;;;;;;6.03;4.13;;;24.50;92.40;;;;;;5095681;28;20536;-80
2023/07/18 08:16:20;;;;;;;9.17;3.70;;;24.60;92.30;;;;;;5100703;27;21034;-76
2023/07/18 08:18:47;;;;;;;8.13;3.77;;;24.70;92.10;;;;;;5113915;27;20457;-76
2023/07/18 08:21:14;;;;;;;8.10;3.73;;;24.80;91.80;;;;;;5096101;28;20461;-82
2023/07/18 08:23:41;;;;;;;6.30;4.10;;;25.00;91.20;;;;;;5094962;28;20485;-77
2023/07/18 08:26:08;;;;;;;9.47;4.27;;;25.10;90.80;;;;;;5095424;28;20470;-74
2023/07/18 08:28:41;;;;;;;5.57;3.80;;;25.20;89.70;;;;;;5095429;28;20477;-75
2023/07/18 08:31:08;;;;;;;5.90;4.10;;;25.40;89.50;;;;;;5095701;28;20473;-79
2023/07/18 08:33:35;;;;;;;5.57;3.87;;;25.50;89.40;;;;;;5095767;28;20497;-78
2023/07/18 08:36:02;;;;;;;4.50;3.40;;;25.30;88.20;;;;;;5095832;28;20538;-75
2023/07/18 08:38:29;;;;;;;6.57;3.73;;;25.30;87.40;;;;;;5095806;28;20465;-79
2023/07/18 08:40:58;;;;;;;5.50;3.63;;;25.30;87.60;;;;;;5095171;27;20473;-78
2023/07/18 08:43:25;;;;;;;6.83;3.20;;;25.20;88.10;;;;;;5095538;28;20931;-79
2023/07/18 08:45:54;;;;;;;6.83;3.47;;;25.20;87.00;;;;;;5094851;28;20474;-78
2023/07/18 08:48:21;;;;;;;7.50;4.20;;;25.20;87.50;;;;;;5095017;28;20552;-75
2023/07/18 08:50:48;;;;;;;6.67;4.20;;;25.20;87.70;;;;;;5094829;28;20503;-75
2023/07/18 08:53:16;;;;;;;10.03;3.50;;;25.30;87.40;;;;;;5095270;28;20461;-79
2023/07/18 08:55:43;;;;;;;8.93;3.30;;;25.30;85.70;;;;;;5095187;28;20843;-79
2023/07/18 08:58:11;;;;;;;5.00;3.97;;;25.30;85.20;;;;;;5095723;28;20545;-79
2023/07/18 09:00:38;;;;;;;9.77;3.80;;;25.30;85.10;;;;;;5094475;28;20958;-75
2023/07/18 09:03:06;;;;;;;8.33;5.67;;;25.30;85.20;;;;;;5095612;28;20466;-79
2023/07/18 09:05:36;;;;;;;11.03;4.30;;;25.30;83.50;;;;;;5094947;28;20568;-79
2023/07/18 09:08:05;;;;;;;8.10;4.40;;;25.40;83.10;;;;;;5094090;28;20839;-79
2023/07/18 09:10:32;;;;;;;9.07;3.93;;;25.50;82.70;;;;;;5095442;28;20533;-79
2023/07/18 09:13:02;;;;;;;5.40;3.37;;;25.50;81.80;;;;;;5094488;28;20529;-75
2023/07/18 09:15:29;;;;;;;4.97;2.70;;;25.60;81.80;;;;;;5094895;28;20465;-79
2023/07/18 09:18:00;;;;;;;7.07;2.87;;;25.60;81.60;;;;;;5094202;28;20553;-79
2023/07/18 09:20:29;;;;;;;4.43;2.80;;;25.60;80.70;;;;;;5095135;28;20791;-79
2023/07/18 09:22:57;;;;;;;4.27;2.53;;;25.60;80.20;;;;;;5093468;28;20540;-78
2023/07/18 09:25:25;;;;;;;4.33;2.63;;;25.60;79.30;;;;;;5094967;28;20906;-75
2023/07/18 09:27:52;;;;;;;4.50;3.27;;;25.60;79.10;;;;;;5094474;28;20539;-74
2023/07/18 09:30:23;;;;;;;4.67;3.50;;;25.50;78.90;;;;;;5094895;28;20469;-76
2023/07/18 09:32:52;;;;;;;3.70;2.53;;;25.50;78.90;;;;;;5080512;28;20484;-75
2023/07/18 09:35:19;;;;;;;7.97;3.27;;;25.40;79.80;;;;;;5093014;28;20468;-75
2023/07/18 09:37:49;;;;;;;5.53;2.90;;;25.40;79.80;;;;;;5093610;28;20577;-75
2023/07/18 09:40:17;;;;;;;5.30;2.50;;;25.30;79.90;;;;;;5094959;28;20461;-78
2023/07/18 09:42:45;;;;;;;8.07;3.20;;;25.30;79.40;;;;;;5094253;28;20469;-76
2023/07/18 09:45:14;;;;;;;6.53;4.23;;;25.30;78.60;;;;;;5094739;28;20927;-80
2023/07/18 09:47:48;;;;;;;9.47;2.83;;;25.20;77.70;;;;;;5092372;28;20456;-76
2023/07/18 09:50:18;;;;;;;7.63;3.03;;;25.20;77.50;;;;;;5101760;28;20469;-76
2023/07/18 09:52:50;;;;;;;3.87;2.23;;;25.20;77.60;;;;;;5093796;28;21057;-75
2023/07/18 09:55:24;;;;;;;3.07;2.77;;;25.20;78.10;;;;;;5084527;28;20576;-79
2023/07/18 09:57:54;;;;;;;5.17;3.40;;;25.20;77.90;;;;;;5094743;28;20465;-79
2023/07/18 10:00:22;;;;;;;8.97;3.53;;;25.20;77.60;;;;;;5093842;28;20472;-80
2023/07/18 10:02:52;;;;;;;3.67;3.30;;;25.30;78.20;;;;;;5081847;28;20460;-80
2023/07/18 10:05:20;;;;;;;2.40;2.20;;;25.30;78.20;;;;;;5073659;28;20443;-80
2023/07/18 10:07:49;;;;;;;2.80;2.50;;;25.30;77.70;;;;;;5081984;28;20473;-75
2023/07/18 10:10:17;;;;;;;2.93;2.73;;;25.30;77.40;;;;;;5081707;28;20800;-79
2023/07/18 10:12:59;;;;;;;3.50;3.20;;;25.30;77.10;;;;;;5092841;28;20519;-76
2023/07/18 10:15:27;;;;;;;4.53;3.23;;;25.40;76.50;;;;;;5093090;28;20561;-76
2023/07/18 10:17:54;;;;;;;4.50;2.10;;;25.40;75.40;;;;;;5088579;28;20462;-80
2023/07/18 10:20:24;;;;;;;3.83;2.87;;;25.40;75.00;;;;;;5087460;28;20538;-79
2023/07/18 10:22:58;;;;;;;6.57;2.90;;;25.50;74.70;;;;;;5094810;28;20545;-80
2023/07/18 10:25:29;;;;;;;3.63;3.00;;;25.40;75.00;;;;;;5092389;28;20842;-76
2023/07/18 10:27:58;;;;;;;3.20;2.90;;;25.40;75.30;;;;;;5079708;28;20482;-76
2023/07/18 10:30:38;;;;;;;6.43;2.80;;;25.50;75.40;;;;;;5082520;28;20515;-79
2023/07/18 10:33:08;;;;;;;7.63;3.70;;;25.50;74.70;;;;;;5085749;28;20461;-76
2023/07/18 10:35:42;;;;;;;6.53;3.23;;;25.50;74.60;;;;;;5079533;28;20530;-76
2023/07/18 10:38:10;;;;;;;7.90;3.33;;;25.50;74.70;;;;;;5078569;28;20470;-75
2023/07/18 10:40:39;;;;;;;5.30;2.93;;;25.60;74.50;;;;;;5087805;28;20488;-75
2023/07/18 10:43:07;;;;;;;3.47;2.13;;;25.60;74.20;;;;;;5089995;28;20485;-76
2023/07/18 10:45:38;;;;;;;2.47;2.27;;;25.60;73.50;;;;;;5092174;28;20537;-76
2023/07/18 10:48:13;;;;;;;8.43;3.00;;;25.70;73.30;;;;;;5087297;28;20888;-76
2023/07/18 10:50:40;;;;;;;4.00;3.00;;;25.80;72.30;;;;;;5089666;28;20611;-79
2023/07/18 10:53:13;;;;;;;6.00;2.93;;;25.70;72.00;;;;;;5081276;28;20478;-80
2023/07/18 10:55:40;;;;;;;3.93;3.00;;;25.80;72.40;;;;;;5084076;28;20458;-75
2023/07/18 10:58:11;;;;;;;2.40;2.20;;;25.80;72.40;;;;;;5097067;28;20480;-75
2023/07/18 11:00:39;;;;;;;10.43;3.30;;;25.80;72.30;;;;;;5077572;28;20474;-75
2023/07/18 11:03:06;;;;;;;11.77;3.13;;;25.80;72.30;;;;;;5091741;28;20465;-75
2023/07/18 11:05:34;;;;;;;6.93;2.20;;;25.80;72.20;;;;;;5084908;28;20481;-80
2023/07/18 11:08:01;;;;;;;4.60;2.70;;;25.70;70.10;;;;;;5078194;28;20536;-79
2023/07/18 11:10:34;;;;;;;9.73;2.40;;;25.80;70.00;;;;;;5088616;28;20476;-76
2023/07/18 11:13:01;;;;;;;7.23;2.50;;;25.80;70.60;;;;;;5091134;28;20865;-79
2023/07/18 11:15:29;;;;;;;2.90;2.60;;;25.80;70.80;;;;;;5091356;28;20586;-79
2023/07/18 11:17:56;;;;;;;3.23;2.20;;;25.90;70.30;;;;;;5084252;28;20478;-78
2023/07/18 11:20:25;;;;;;;11.50;3.87;;;26.00;70.40;;;;;;5080260;28;20534;-80
2023/07/18 11:22:53;;;;;;;8.70;2.60;;;26.00;70.30;;;;;;5086666;28;20548;-80
2023/07/18 11:25:20;;;;;;;4.87;2.10;;;26.00;70.00;;;;;;5086770;28;20465;-80
2023/07/18 11:27:50;;;;;;;3.60;2.20;;;26.00;69.50;;;;;;5092707;27;20458;-79
2023/07/18 11:30:22;;;;;;;3.83;3.27;;;26.10;69.50;;;;;;5090683;28;20481;-79
2023/07/18 11:32:49;;;;;;;6.80;4.57;;;26.20;68.60;;;;;;5086178;28;20480;-75
2023/07/18 11:35:20;;;;;;;2.80;2.20;;;26.30;68.20;;;;;;5091660;28;20878;-80
2023/07/18 11:41:14;;;;;;;3.00;2.27;;;26.50;67.30;;;;;;5498648;22;20469;-79
2023/07/18 11:43:49;;;;;;;2.80;2.57;;;26.60;67.30;;;;;;5062064;28;20466;-76
2023/07/18 11:46:16;;;;;;;5.70;2.97;;;26.60;67.80;;;;;;5055077;28;20451;-77
2023/07/18 11:48:43;;;;;;;4.50;2.30;;;26.60;67.70;;;;;;5045580;28;20553;-80
2023/07/18 11:51:11;;;;;;;3.90;2.50;;;26.70;67.20;;;;;;5059379;28;20941;-79
2023/07/18 11:53:38;;;;;;;6.60;2.80;;;26.70;66.90;;;;;;5050860;28;20471;-79
2023/07/18 11:56:05;;;;;;;6.70;2.70;;;26.80;67.10;;;;;;5051948;28;20474;-75
2023/07/18 11:58:32;;;;;;;19.77;4.03;;;26.80;67.00;;;;;;5053938;28;20471;-80
2023/07/18 12:01:03;;;;;;;5.50;2.90;;;26.80;66.30;;;;;;5053860;28;20882;-76
2023/07/18 12:03:31;;;;;;;3.77;1.90;;;26.80;66.20;;;;;;5052637;28;20774;-76
2023/07/18 12:05:57;;;;;;;6.50;2.70;;;26.80;66.10;;;;;;5048338;28;20472;-76
2023/07/18 12:08:24;;;;;;;2.40;2.20;;;26.80;65.90;;;;;;5040201;28;21052;-79
2023/07/18 12:10:56;;;;;;;7.23;2.63;;;26.80;65.80;;;;;;5033549;28;20557;-80
2023/07/18 12:13:27;;;;;;;7.13;2.00;;;26.90;64.70;;;;;;5044924;28;20497;-80
2023/07/18 12:15:57;;;;;;;3.50;2.50;;;26.90;64.30;;;;;;5054505;28;20561;-79
2023/07/18 12:18:28;;;;;;;5.83;3.53;;;26.90;64.70;;;;;;5038186;28;20479;-80
2023/07/18 12:20:55;;;;;;;5.63;4.00;;;27.00;65.00;;;;;;5043335;28;20973;-79
2023/07/18 12:23:22;;;;;;;3.33;3.03;;;26.90;64.60;;;;;;5052835;28;20626;-81
2023/07/18 12:25:49;;;;;;;2.87;2.67;;;27.00;64.80;;;;;;5055277;28;20575;-81
2023/07/18 12:28:18;;;;;;;2.70;2.40;;;26.90;64.10;;;;;;5053691;28;20467;-80
2023/07/18 12:30:51;;;;;;;4.10;3.27;;;26.90;63.80;;;;;;5048102;28;20457;-80
2023/07/18 12:33:18;;;;;;;4.70;3.40;;;26.90;64.30;;;;;;5051290;28;20575;-80
2023/07/18 12:35:46;;;;;;;3.63;3.00;;;26.90;64.60;;;;;;5050143;28;20553;-76
2023/07/18 12:38:13;;;;;;;3.70;2.93;;;27.00;64.90;;;;;;5054099;28;20500;-80
2023/07/18 12:40:40;;;;;;;4.57;2.13;;;27.00;64.40;;;;;;5053733;28;20544;-81
2023/07/18 12:43:07;;;;;;;4.50;2.67;;;27.00;64.30;;;;;;5054472;28;20997;-80
2023/07/18 12:45:34;;;;;;;3.00;2.80;;;27.00;63.90;;;;;;5054979;28;20878;-81
2023/07/18 12:48:01;;;;;;;10.70;3.70;;;27.00;64.20;;;;;;5054886;28;20493;-76
2023/07/18 12:50:30;;;;;;;5.73;3.63;;;27.00;63.90;;;;;;5052262;28;20534;-81
2023/07/18 12:52:59;;;;;;;4.20;2.87;;;26.90;65.00;;;;;;5053915;28;20478;-78
2023/07/18 12:55:26;;;;;;;3.27;2.57;;;26.90;65.20;;;;;;5051086;28;20495;-77